createdAt,value
2023-05-13T00:00:03.055Z,14.30
2023-05-13T00:02:31.650Z,14.30
2023-05-13T00:04:59.975Z,14.30
2023-05-13T00:07:28.438Z,14.30
2023-05-13T00:09:56.741Z,14.29
2023-05-13T00:12:25.185Z,14.30
2023-05-13T00:14:53.612Z,14.29
2023-05-13T00:17:23.298Z,14.30
2023-05-13T00:19:51.672Z,14.29
2023-05-13T00:22:19.963Z,14.29
2023-05-13T00:24:48.456Z,14.30
2023-05-13T00:27:16.726Z,14.30
2023-05-13T00:29:44.993Z,14.29
2023-05-13T00:32:13.312Z,14.29
2023-05-13T00:34:42.962Z,14.28
2023-05-13T00:37:12.159Z,14.27
2023-05-13T00:39:40.510Z,14.28
2023-05-13T00:42:12.425Z,14.28
2023-05-13T00:44:40.961Z,14.27
2023-05-13T00:47:10.430Z,14.28
2023-05-13T00:49:38.814Z,14.28
2023-05-13T00:52:11.914Z,14.27
2023-05-13T00:54:40.220Z,14.26
2023-05-13T00:57:08.950Z,14.26
2023-05-13T00:59:37.260Z,14.26
2023-05-13T01:02:12.256Z,14.25
2023-05-13T01:04:50.366Z,14.25
2023-05-13T01:07:35.199Z,14.24
2023-05-13T01:10:11.469Z,14.23
2023-05-13T01:12:42.560Z,14.26
2023-05-13T01:15:15.209Z,14.26
2023-05-13T01:17:51.697Z,14.27
2023-05-13T01:20:23.895Z,14.27
2023-05-13T01:22:53.893Z,14.28
2023-05-13T01:25:22.194Z,14.27
2023-05-13T01:27:50.733Z,14.25
2023-05-13T01:30:22.763Z,14.28
2023-05-13T01:32:53.084Z,14.26
2023-05-13T01:35:22.830Z,14.25
2023-05-13T01:37:53.903Z,14.24
2023-05-13T01:40:32.437Z,14.23
2023-05-13T01:43:01.710Z,14.23
2023-05-13T01:45:30.790Z,14.22
2023-05-13T01:47:59.168Z,14.23
2023-05-13T01:50:27.614Z,14.23
2023-05-13T01:52:57.572Z,14.23
2023-05-13T01:55:28.937Z,14.23
2023-05-13T01:57:57.249Z,14.23
2023-05-13T02:00:25.628Z,14.22
2023-05-13T02:02:54.037Z,14.22
2023-05-13T02:05:23.282Z,14.21
2023-05-13T02:07:51.952Z,14.20
2023-05-13T02:10:21.838Z,14.20
2023-05-13T02:12:50.377Z,14.21
2023-05-13T02:15:18.912Z,14.19
2023-05-13T02:17:47.242Z,14.19
2023-05-13T02:20:16.080Z,14.18
2023-05-13T02:22:47.290Z,14.18
2023-05-13T02:25:15.662Z,14.16
2023-05-13T02:27:45.344Z,14.17
2023-05-13T02:30:14.216Z,14.18
2023-05-13T02:32:43.986Z,14.18
2023-05-13T02:35:12.436Z,14.19
2023-05-13T02:37:40.797Z,14.19
2023-05-13T02:40:10.799Z,14.21
2023-05-13T02:42:39.115Z,14.21
2023-05-13T02:45:10.809Z,14.21
2023-05-13T02:47:39.336Z,14.23
2023-05-13T02:50:10.138Z,14.23
2023-05-13T02:52:39.225Z,14.22
2023-05-13T02:55:10.275Z,14.22
2023-05-13T02:57:38.654Z,14.22
2023-05-13T03:00:11.137Z,14.21
2023-05-13T03:02:40.156Z,14.21
2023-05-13T03:05:09.731Z,14.21
2023-05-13T03:07:38.027Z,14.19
2023-05-13T03:10:07.775Z,14.19
2023-05-13T03:12:36.216Z,14.18
2023-05-13T03:15:04.879Z,14.18
2023-05-13T03:17:34.587Z,14.17
2023-05-13T03:20:03.488Z,14.15
2023-05-13T03:22:31.751Z,14.15
2023-05-13T03:25:00.227Z,14.13
2023-05-13T03:27:28.522Z,14.13
2023-05-13T03:29:56.801Z,14.12
2023-05-13T03:32:30.489Z,14.10
2023-05-13T03:35:01.618Z,14.09
2023-05-13T03:37:29.902Z,14.08
2023-05-13T03:39:58.302Z,14.07
2023-05-13T03:42:26.693Z,14.07
2023-05-13T03:44:57.046Z,14.06
2023-05-13T03:47:28.155Z,14.08
2023-05-13T03:49:56.567Z,14.04
2023-05-13T03:52:26.447Z,14.05
2023-05-13T03:54:54.767Z,14.03
2023-05-13T03:57:23.057Z,14.02
2023-05-13T03:59:51.364Z,14.01
2023-05-13T04:02:21.785Z,14.02
2023-05-13T04:04:50.142Z,14.02
2023-05-13T04:07:18.492Z,14.04
2023-05-13T04:09:48.199Z,14.04
2023-05-13T04:12:18.150Z,14.06
2023-05-13T04:14:49.358Z,14.06
2023-05-13T04:17:19.723Z,14.07
2023-05-13T04:19:48.041Z,14.05
2023-05-13T04:22:16.341Z,14.08
2023-05-13T04:24:44.672Z,14.09
2023-05-13T04:27:14.382Z,14.09
2023-05-13T04:29:42.692Z,14.11
2023-05-13T04:32:11.081Z,14.11
2023-05-13T04:34:39.523Z,14.11
2023-05-13T04:37:08.101Z,14.13
2023-05-13T04:39:36.388Z,14.14
2023-05-13T04:42:05.007Z,14.17
2023-05-13T04:44:35.104Z,14.16
2023-05-13T04:47:03.446Z,14.17
2023-05-13T04:49:31.752Z,14.17
2023-05-13T04:52:05.323Z,14.18
2023-05-13T04:54:35.432Z,14.15
2023-05-13T04:57:03.969Z,14.18
2023-05-13T04:59:32.332Z,14.20
2023-05-13T05:02:02.484Z,14.21
2023-05-13T05:04:30.971Z,14.21
2023-05-13T05:07:04.111Z,14.22
2023-05-13T05:09:32.369Z,14.23
2023-05-13T05:12:03.554Z,14.23
2023-05-13T05:14:31.836Z,14.25
2023-05-13T05:17:04.620Z,14.26
2023-05-13T05:19:33.116Z,14.29
2023-05-13T05:22:04.370Z,14.30
2023-05-13T05:24:32.651Z,14.32
2023-05-13T05:27:01.030Z,14.32
2023-05-13T05:29:32.332Z,14.35
2023-05-13T05:32:05.889Z,14.35
2023-05-13T05:34:34.343Z,14.37
2023-05-13T05:37:02.624Z,14.39
2023-05-13T05:39:30.924Z,14.40
2023-05-13T05:42:05.065Z,14.40
2023-05-13T05:44:36.475Z,14.41
2023-05-13T05:47:06.797Z,14.43
2023-05-13T05:49:35.113Z,14.45
2023-05-13T05:52:03.449Z,14.47
2023-05-13T05:54:37.863Z,14.47
2023-05-13T05:57:06.871Z,14.50
2023-05-13T05:59:35.179Z,14.49
2023-05-13T06:02:05.130Z,14.49
2023-05-13T06:04:33.519Z,14.50
2023-05-13T06:07:01.914Z,14.52
2023-05-13T06:09:30.370Z,14.53
2023-05-13T06:11:58.667Z,14.57
2023-05-13T06:14:27.122Z,14.60
2023-05-13T06:16:56.068Z,14.62
2023-05-13T06:19:25.796Z,14.67
2023-05-13T06:21:54.124Z,14.71
2023-05-13T06:24:22.504Z,14.73
2023-05-13T06:26:50.764Z,14.77
2023-05-13T06:29:19.123Z,14.80
2023-05-13T06:31:50.172Z,14.82
2023-05-13T06:34:18.491Z,14.86
2023-05-13T06:36:48.158Z,14.92
2023-05-13T06:39:16.625Z,14.98
2023-05-13T06:41:47.711Z,15.01
2023-05-13T06:44:16.082Z,15.07
2023-05-13T06:46:44.506Z,15.08
2023-05-13T06:49:12.835Z,15.17
2023-05-13T06:51:47.024Z,15.20
2023-05-13T06:54:16.730Z,15.21
2023-05-13T06:56:45.070Z,15.26
2023-05-13T06:59:13.697Z,15.27
2023-05-13T07:01:43.613Z,15.31
2023-05-13T07:04:11.936Z,15.32
2023-05-13T07:06:40.406Z,15.37
2023-05-13T07:09:14.700Z,15.38
2023-05-13T07:11:47.529Z,15.41
2023-05-13T07:14:15.817Z,15.42
2023-05-13T07:16:47.126Z,15.44
2023-05-13T07:19:18.602Z,15.46
2023-05-13T07:21:50.022Z,15.47
2023-05-13T07:24:18.279Z,15.45
2023-05-13T07:26:53.440Z,15.45
2023-05-13T07:29:21.751Z,15.41
2023-05-13T07:31:52.689Z,15.44
2023-05-13T07:34:21.236Z,15.41
2023-05-13T07:36:54.882Z,15.39
2023-05-13T07:39:23.192Z,15.35
2023-05-13T07:41:52.878Z,15.32
2023-05-13T07:44:21.238Z,15.32
2023-05-13T07:46:51.584Z,15.29
2023-05-13T07:49:19.947Z,15.30
2023-05-13T07:51:48.349Z,15.33
2023-05-13T07:54:16.631Z,15.34
2023-05-13T07:56:48.070Z,15.35
2023-05-13T07:59:17.764Z,15.36
2023-05-13T08:01:46.108Z,15.38
2023-05-13T08:04:14.495Z,15.33
2023-05-13T08:06:48.877Z,15.32
2023-05-13T08:11:51.716Z,15.30
2023-05-13T08:14:21.704Z,15.32
2023-05-13T08:16:50.227Z,15.33
2023-05-13T08:19:18.751Z,15.33
2023-05-13T08:21:47.065Z,15.37
2023-05-13T08:24:18.253Z,15.36
2023-05-13T08:26:47.246Z,15.38
2023-05-13T08:29:15.794Z,15.38
2023-05-13T08:31:48.555Z,15.40
2023-05-13T08:34:17.030Z,15.41
2023-05-13T08:36:45.401Z,15.44
2023-05-13T08:39:13.766Z,15.45
2023-05-13T08:41:43.619Z,15.46
2023-05-13T08:44:14.374Z,15.47
2023-05-13T08:46:50.745Z,15.47
2023-05-13T08:49:19.162Z,15.49
2023-05-13T08:51:47.500Z,15.53
2023-05-13T08:54:17.596Z,15.55
2023-05-13T08:56:45.856Z,15.60
2023-05-13T08:59:14.152Z,15.65
2023-05-13T09:01:42.505Z,15.69
2023-05-13T09:04:12.478Z,15.74
2023-05-13T09:06:40.796Z,15.77
2023-05-13T09:09:09.884Z,15.84
2023-05-13T09:11:41.497Z,15.90
2023-05-13T09:14:12.221Z,15.94
2023-05-13T09:16:44.010Z,16.00
2023-05-13T09:19:13.955Z,16.11
2023-05-13T09:21:42.397Z,16.22
2023-05-13T09:24:13.332Z,16.20
2023-05-13T09:26:43.312Z,16.30
2023-05-13T09:29:23.573Z,16.36
2023-05-13T09:31:54.904Z,16.45
2023-05-13T09:34:30.203Z,16.45
2023-05-13T09:37:04.024Z,16.54
2023-05-13T09:39:34.373Z,16.63
2023-05-13T09:42:05.362Z,16.75
2023-05-13T09:44:37.884Z,16.82
2023-05-13T09:47:06.590Z,16.94
2023-05-13T09:49:36.540Z,17.00
2023-05-13T09:52:10.108Z,17.09
2023-05-13T09:54:38.724Z,17.22
2023-05-13T09:57:07.932Z,17.29
2023-05-13T09:59:36.806Z,17.41
2023-05-13T10:02:10.276Z,17.55
2023-05-13T10:04:40.673Z,17.66
2023-05-13T10:07:10.260Z,17.76
2023-05-13T10:09:40.190Z,17.81
2023-05-13T10:12:19.084Z,17.89
2023-05-13T10:14:49.747Z,17.96
2023-05-13T10:17:19.947Z,18.02
2023-05-13T10:19:51.338Z,18.05
2023-05-13T10:22:31.178Z,18.04
2023-05-13T10:25:04.035Z,18.06
2023-05-13T10:27:34.419Z,18.07
2023-05-13T10:30:05.886Z,18.08
2023-05-13T10:32:41.134Z,18.06
2023-05-13T10:35:15.138Z,18.06
2023-05-13T10:38:02.884Z,18.01
2023-05-13T10:40:57.811Z,18.03
2023-05-13T10:43:32.691Z,18.13
2023-05-13T10:46:03.338Z,18.19
2023-05-13T10:48:41.735Z,18.24
2023-05-13T10:51:16.528Z,18.29
2023-05-13T10:53:48.750Z,18.33
2023-05-13T10:56:17.804Z,18.36
2023-05-13T10:59:00.048Z,18.42
2023-05-13T11:01:31.025Z,18.46
2023-05-13T11:04:02.405Z,18.51
2023-05-13T11:06:37.130Z,18.57
2023-05-13T11:09:07.917Z,18.68
2023-05-13T11:11:39.888Z,18.79
2023-05-13T11:14:16.442Z,18.90
2023-05-13T11:16:50.360Z,18.95
2023-05-13T11:19:24.235Z,19.04
2023-05-13T11:21:56.699Z,19.10
2023-05-13T11:24:28.190Z,19.14
2023-05-13T11:26:59.308Z,19.19
2023-05-13T11:29:32.789Z,19.19
2023-05-13T11:32:03.480Z,19.26
2023-05-13T11:34:32.820Z,19.31
2023-05-13T11:37:11.842Z,19.31
2023-05-13T11:39:42.276Z,19.33
2023-05-13T11:42:12.192Z,19.34
2023-05-13T11:44:48.682Z,19.31
2023-05-13T11:47:27.193Z,19.35
2023-05-13T11:49:55.925Z,19.30
2023-05-13T11:52:25.926Z,19.30
2023-05-13T11:54:56.310Z,19.29
2023-05-13T11:57:26.421Z,19.29
2023-05-13T12:00:00.718Z,19.23
2023-05-13T12:02:31.123Z,19.26
2023-05-13T12:05:04.482Z,19.27
2023-05-13T12:07:35.538Z,19.29
2023-05-13T12:10:06.516Z,19.35
2023-05-13T12:12:39.388Z,19.42
2023-05-13T12:15:11.649Z,19.54
2023-05-13T12:17:40.625Z,19.62
2023-05-13T12:20:14.262Z,19.69
2023-05-13T12:22:57.667Z,19.77
2023-05-13T12:25:41.519Z,19.85
2023-05-13T12:28:13.273Z,19.90
2023-05-13T12:31:01.097Z,19.95
2023-05-13T12:33:32.380Z,19.94
2023-05-13T12:36:21.215Z,19.93
2023-05-13T12:39:00.639Z,19.92
2023-05-13T12:41:31.273Z,19.97
2023-05-13T12:44:01.310Z,19.99
2023-05-13T12:46:30.233Z,20.04
2023-05-13T12:49:00.191Z,20.05
2023-05-13T12:51:30.490Z,20.10
2023-05-13T12:54:00.974Z,20.13
2023-05-13T12:56:29.554Z,20.15
2023-05-13T12:58:58.116Z,20.21
2023-05-13T13:01:26.514Z,20.26
2023-05-13T13:03:55.013Z,20.35
2023-05-13T13:06:23.618Z,20.42
2023-05-13T13:08:52.264Z,20.53
2023-05-13T13:11:22.093Z,20.56
2023-05-13T13:13:51.274Z,20.64
2023-05-13T13:16:19.826Z,20.69
2023-05-13T13:18:51.008Z,20.78
2023-05-13T13:21:20.893Z,20.93
2023-05-13T13:23:49.295Z,21.03
2023-05-13T13:26:17.669Z,21.13
2023-05-13T13:28:47.528Z,21.26
2023-05-13T13:31:15.949Z,21.32
2023-05-13T13:33:44.309Z,21.39
2023-05-13T13:36:12.884Z,21.50
2023-05-13T13:38:41.212Z,21.59
2023-05-13T13:41:09.653Z,21.67
2023-05-13T13:43:38.799Z,21.80
2023-05-13T13:46:08.772Z,21.86
2023-05-13T13:48:37.193Z,21.90
2023-05-13T13:51:06.162Z,21.93
2023-05-13T13:53:34.558Z,21.97
2023-05-13T13:56:06.055Z,22.01
2023-05-13T13:58:34.540Z,22.06
2023-05-13T14:01:02.930Z,22.08
2023-05-13T14:03:32.989Z,22.09
2023-05-13T14:06:01.643Z,22.09
2023-05-13T14:08:29.954Z,22.11
2023-05-13T14:10:58.855Z,22.07
2023-05-13T14:13:27.701Z,22.07
2023-05-13T14:15:56.172Z,22.12
2023-05-13T14:18:24.555Z,22.12
2023-05-13T14:20:54.396Z,22.13
2023-05-13T14:23:22.720Z,22.16
2023-05-13T14:25:53.940Z,22.19
2023-05-13T14:28:23.777Z,22.19
2023-05-13T14:30:53.458Z,22.20
2023-05-13T14:33:21.835Z,22.22
2023-05-13T14:35:50.199Z,22.21
2023-05-13T14:38:20.718Z,22.15
2023-05-13T14:40:51.720Z,22.10
2023-05-13T14:43:20.127Z,22.07
2023-05-13T14:46:02.614Z,22.02
2023-05-13T14:48:31.013Z,21.97
2023-05-13T14:50:59.369Z,21.96
2023-05-13T14:53:29.555Z,21.94
2023-05-13T14:55:59.684Z,21.89
2023-05-13T14:58:28.131Z,21.93
2023-05-13T15:01:02.168Z,21.91
2023-05-13T15:03:30.682Z,21.88
2023-05-13T15:05:59.188Z,21.81
2023-05-13T15:08:29.095Z,21.78
2023-05-13T15:10:57.502Z,21.77
2023-05-13T15:13:27.281Z,21.70
2023-05-13T15:15:56.603Z,21.64
2023-05-13T15:18:24.939Z,21.61
2023-05-13T15:20:53.317Z,21.53
2023-05-13T15:23:21.743Z,21.53
2023-05-13T15:25:57.481Z,21.47
2023-05-13T15:28:25.828Z,21.45
2023-05-13T15:30:54.274Z,21.48
2023-05-13T15:33:22.704Z,21.48
2023-05-13T15:35:53.719Z,21.50
2023-05-13T15:38:22.041Z,21.50
2023-05-13T15:40:50.566Z,21.48
2023-05-13T15:43:20.231Z,21.52
2023-05-13T15:45:49.793Z,21.56
2023-05-13T15:48:18.408Z,21.56
2023-05-13T15:50:46.814Z,21.60
2023-05-13T15:53:15.160Z,21.66
2023-05-13T15:55:43.581Z,21.70
2023-05-13T15:58:12.018Z,21.73
2023-05-13T16:00:41.717Z,21.77
2023-05-13T16:03:10.198Z,21.77
2023-05-13T16:05:38.818Z,21.77
2023-05-13T16:08:07.218Z,21.77
2023-05-13T16:10:35.902Z,21.77
2023-05-13T16:13:04.351Z,21.78
2023-05-13T16:15:32.806Z,21.82
2023-05-13T16:18:02.549Z,21.81
2023-05-13T16:20:30.957Z,21.83
2023-05-13T16:22:59.312Z,21.87
2023-05-13T16:25:27.838Z,21.90
2023-05-13T16:27:56.712Z,21.96
2023-05-13T16:30:25.245Z,21.99
2023-05-13T16:32:54.522Z,22.00
2023-05-13T16:35:24.647Z,21.99
2023-05-13T16:37:53.031Z,22.00
2023-05-13T16:40:21.587Z,22.03
2023-05-13T16:42:58.844Z,22.03
2023-05-13T16:45:28.262Z,22.02
2023-05-13T16:47:56.995Z,22.05
2023-05-13T16:50:27.996Z,22.04
2023-05-13T16:52:57.044Z,21.96
2023-05-13T16:55:26.149Z,21.88
2023-05-13T16:57:54.630Z,21.80
2023-05-13T17:00:23.664Z,21.67
2023-05-13T17:02:52.404Z,21.52
2023-05-13T17:05:20.874Z,21.38
2023-05-13T17:07:51.175Z,21.24
2023-05-13T17:10:19.613Z,21.12
2023-05-13T17:12:48.057Z,21.01
2023-05-13T17:15:16.634Z,20.91
2023-05-13T17:17:45.182Z,20.82
2023-05-13T17:20:14.489Z,20.73
2023-05-13T17:22:45.402Z,20.63
2023-05-13T17:25:15.400Z,20.48
2023-05-13T17:27:43.803Z,20.37
2023-05-13T17:30:13.620Z,20.27
2023-05-13T17:32:42.108Z,20.17
2023-05-13T17:35:11.473Z,20.07
2023-05-13T17:37:39.998Z,19.97
2023-05-13T17:40:10.434Z,19.88
2023-05-13T17:42:40.293Z,19.81
2023-05-13T17:45:10.470Z,19.74
2023-05-13T17:47:39.094Z,19.70
2023-05-13T17:50:08.995Z,19.63
2023-05-13T17:52:37.432Z,19.56
2023-05-13T17:55:07.286Z,19.49
2023-05-13T17:57:35.716Z,19.42
2023-05-13T18:00:07.151Z,19.35
2023-05-13T18:02:36.226Z,19.29
2023-05-13T18:05:04.774Z,19.22
2023-05-13T18:07:33.210Z,19.17
2023-05-13T18:10:01.655Z,19.13
2023-05-13T18:12:30.617Z,19.07
2023-05-13T18:14:59.150Z,19.00
2023-05-13T18:17:29.039Z,18.92
2023-05-13T18:19:57.573Z,18.87
2023-05-13T18:22:26.200Z,18.83
2023-05-13T18:24:54.537Z,18.75
2023-05-13T18:27:22.954Z,18.74
2023-05-13T18:29:51.395Z,18.65
2023-05-13T18:32:19.890Z,18.58
2023-05-13T18:34:49.670Z,18.53
2023-05-13T18:37:18.519Z,18.49
2023-05-13T18:39:46.941Z,18.42
2023-05-13T18:42:15.420Z,18.41
2023-05-13T18:44:43.826Z,18.38
2023-05-13T18:47:12.366Z,18.35
2023-05-13T18:49:40.992Z,18.33
2023-05-13T18:52:10.864Z,18.28
2023-05-13T18:54:39.681Z,18.26
2023-05-13T18:57:08.208Z,18.23
2023-05-13T18:59:36.722Z,18.19
2023-05-13T19:02:05.515Z,18.17
2023-05-13T19:04:34.294Z,18.15
2023-05-13T19:07:02.979Z,18.12
2023-05-13T19:09:34.126Z,18.08
2023-05-13T19:12:02.593Z,18.04
2023-05-13T19:14:31.053Z,18.00
2023-05-13T19:16:59.615Z,17.97
2023-05-13T19:19:28.099Z,17.92
2023-05-13T19:21:56.614Z,17.88
2023-05-13T19:24:25.180Z,17.83
2023-05-13T19:26:55.131Z,17.79
2023-05-13T19:29:23.601Z,17.74
2023-05-13T19:31:51.959Z,17.70
2023-05-13T19:34:20.454Z,17.62
2023-05-13T19:36:49.028Z,17.60
2023-05-13T19:39:17.472Z,17.56
2023-05-13T19:41:47.285Z,17.52
2023-05-13T19:44:17.011Z,17.46
2023-05-13T19:46:45.643Z,17.44
2023-05-13T19:49:14.072Z,17.39
2023-05-13T19:51:42.461Z,17.34
2023-05-13T19:54:11.886Z,17.30
2023-05-13T19:56:42.634Z,17.26
2023-05-13T19:59:11.273Z,17.21
2023-05-13T20:01:41.236Z,17.15
2023-05-13T20:04:10.668Z,17.12
2023-05-13T20:06:39.124Z,17.10
2023-05-13T20:09:07.491Z,17.06
2023-05-13T20:11:35.871Z,17.05
2023-05-13T20:14:04.386Z,17.02
2023-05-13T20:16:32.913Z,17.00
2023-05-13T20:19:02.813Z,16.98
2023-05-13T20:21:31.329Z,16.98
2023-05-13T20:23:59.795Z,16.96
2023-05-13T20:26:28.438Z,16.93
2023-05-13T20:28:58.663Z,16.93
2023-05-13T20:31:29.673Z,16.89
2023-05-13T20:33:58.683Z,16.91
2023-05-13T20:36:28.539Z,16.88
2023-05-13T20:38:57.083Z,16.89
2023-05-13T20:41:25.654Z,16.87
2023-05-13T20:43:53.999Z,16.86
2023-05-13T20:46:23.428Z,16.83
2023-05-13T20:48:51.930Z,16.82
2023-05-13T20:51:20.518Z,16.80
2023-05-13T20:53:50.624Z,16.77
2023-05-13T20:56:19.177Z,16.74
2023-05-13T20:58:47.640Z,16.72
2023-05-13T21:01:16.181Z,16.68
2023-05-13T21:03:44.671Z,16.64
2023-05-13T21:06:13.204Z,16.61
2023-05-13T21:08:41.672Z,16.56
2023-05-13T21:11:11.831Z,16.53
2023-05-13T21:13:40.453Z,16.50
2023-05-13T21:16:09.047Z,16.45
2023-05-13T21:18:37.782Z,16.39
2023-05-13T21:21:12.282Z,16.34
2023-05-13T21:23:43.088Z,16.31
2023-05-13T21:26:13.310Z,16.26
2023-05-13T21:28:42.276Z,16.23
2023-05-13T21:31:10.708Z,16.19
2023-05-13T21:33:39.197Z,16.14
2023-05-13T21:36:08.659Z,16.09
2023-05-13T21:38:37.180Z,16.05
2023-05-13T21:41:05.681Z,16.01
2023-05-13T21:43:35.522Z,15.98
2023-05-13T21:46:06.551Z,15.94
2023-05-13T21:48:35.097Z,15.92
2023-05-13T21:51:03.630Z,15.89
2023-05-13T21:53:32.019Z,15.87
2023-05-13T21:56:00.548Z,15.84
2023-05-13T21:58:29.323Z,15.79
2023-05-13T22:01:00.287Z,15.77
2023-05-13T22:03:29.091Z,15.71
2023-05-13T22:06:00.615Z,15.64
2023-05-13T22:08:29.181Z,15.62
2023-05-13T22:10:57.738Z,15.58
2023-05-13T22:13:27.121Z,15.52
2023-05-13T22:15:55.597Z,15.48
2023-05-13T22:18:25.831Z,15.40
2023-05-13T22:20:54.476Z,15.39
2023-05-13T22:23:22.947Z,15.33
2023-05-13T22:25:51.412Z,15.27
2023-05-13T22:28:19.915Z,15.24
2023-05-13T22:30:59.362Z,15.20
2023-05-13T22:33:29.218Z,15.14
2023-05-13T22:35:57.630Z,15.13
2023-05-13T22:38:26.362Z,15.08
2023-05-13T22:40:54.859Z,15.05
2023-05-13T22:43:23.441Z,15.01
2023-05-13T22:45:52.128Z,14.98
2023-05-13T22:48:20.638Z,14.93
2023-05-13T22:50:50.694Z,14.90
2023-05-13T22:53:19.149Z,14.85
2023-05-13T22:55:47.626Z,14.82
2023-05-13T22:58:16.354Z,14.77
2023-05-13T23:00:45.030Z,14.74
2023-05-13T23:03:13.511Z,14.72
2023-05-13T23:05:42.108Z,14.68
2023-05-13T23:08:11.936Z,14.65
2023-05-13T23:10:44.035Z,14.60
2023-05-13T23:13:12.526Z,14.58
2023-05-13T23:15:41.160Z,14.56
2023-05-13T23:18:09.580Z,14.53
2023-05-13T23:20:40.663Z,14.50
2023-05-13T23:23:11.894Z,14.48
2023-05-13T23:25:41.539Z,14.45
2023-05-13T23:28:09.901Z,14.42
2023-05-13T23:30:41.247Z,14.40
2023-05-13T23:33:10.132Z,14.39
2023-05-13T23:35:38.454Z,14.38
2023-05-13T23:38:06.798Z,14.37
2023-05-13T23:40:35.178Z,14.32
2023-05-13T23:43:04.971Z,14.32
2023-05-13T23:45:33.338Z,14.31
2023-05-13T23:48:01.924Z,14.29
2023-05-13T23:50:30.268Z,14.29
2023-05-13T23:52:58.820Z,14.28
2023-05-13T23:55:27.118Z,14.26
2023-05-13T23:57:56.053Z,14.26
